createdAt,value
2022-10-16T00:01:42.219Z,16.34
2022-10-16T00:04:09.923Z,16.26
2022-10-16T00:06:37.377Z,16.23
2022-10-16T00:09:04.892Z,16.19
2022-10-16T00:11:34.774Z,16.27
2022-10-16T00:14:03.659Z,16.35
2022-10-16T00:16:31.401Z,16.35
2022-10-16T00:19:01.940Z,16.42
2022-10-16T00:21:31.137Z,16.38
2022-10-16T00:24:17.037Z,16.25
2022-10-16T00:26:44.452Z,16.23
2022-10-16T00:29:12.251Z,16.07
2022-10-16T00:31:39.600Z,16.16
2022-10-16T00:34:07.013Z,16.17
2022-10-16T00:36:34.523Z,16.11
2022-10-16T00:39:03.729Z,16.04
2022-10-16T00:41:32.007Z,16.02
2022-10-16T00:44:02.885Z,15.94
2022-10-16T00:46:35.449Z,15.93
2022-10-16T00:49:06.024Z,16.02
2022-10-16T00:51:36.491Z,16.00
2022-10-16T00:54:07.815Z,15.89
2022-10-16T00:56:38.350Z,15.91
2022-10-16T00:59:15.248Z,15.84
2022-10-16T01:01:42.586Z,15.78
2022-10-16T01:04:10.533Z,15.74
2022-10-16T01:07:06.785Z,15.70
2022-10-16T01:10:08.844Z,15.73
2022-10-16T01:12:48.678Z,15.70
2022-10-16T01:15:26.348Z,15.71
2022-10-16T01:18:11.816Z,15.68
2022-10-16T01:20:48.681Z,15.69
2022-10-16T01:23:25.223Z,15.65
2022-10-16T01:26:30.285Z,15.69
2022-10-16T01:29:10.091Z,15.61
2022-10-16T01:31:41.900Z,15.58
2022-10-16T01:34:11.990Z,15.59
2022-10-16T01:36:49.387Z,15.50
2022-10-16T01:39:21.822Z,15.46
2022-10-16T01:41:56.031Z,15.43
2022-10-16T01:44:31.055Z,15.45
2022-10-16T01:46:58.924Z,15.45
2022-10-16T01:49:28.909Z,15.48
2022-10-16T01:54:35.152Z,15.48
2022-10-16T01:57:04.907Z,15.51
2022-10-16T01:59:39.702Z,15.54
2022-10-16T02:02:10.237Z,15.58
2022-10-16T02:04:42.001Z,15.51
2022-10-16T02:07:09.672Z,15.67
2022-10-16T02:09:37.831Z,15.71
2022-10-16T02:12:14.962Z,15.72
2022-10-16T02:14:45.274Z,15.75
2022-10-16T02:17:15.865Z,15.79
2022-10-16T02:19:45.993Z,15.83
2022-10-16T02:22:33.580Z,15.86
2022-10-16T02:25:45.735Z,15.80
2022-10-16T02:28:23.579Z,15.83
2022-10-16T02:31:05.961Z,15.82
2022-10-16T02:33:35.689Z,15.80
2022-10-16T02:36:03.686Z,15.84
2022-10-16T02:38:31.537Z,15.85
2022-10-16T02:40:59.055Z,15.84
2022-10-16T02:43:27.435Z,15.88
2022-10-16T02:45:57.629Z,15.82
2022-10-16T02:48:24.979Z,15.79
2022-10-16T02:50:52.330Z,15.84
2022-10-16T02:53:20.357Z,15.79
2022-10-16T02:55:47.657Z,15.83
2022-10-16T02:58:15.119Z,15.84
2022-10-16T03:00:43.321Z,15.80
2022-10-16T03:03:11.210Z,15.85
2022-10-16T03:05:38.608Z,15.86
2022-10-16T03:08:06.017Z,15.83
2022-10-16T03:10:33.439Z,15.77
2022-10-16T03:13:00.906Z,15.78
2022-10-16T03:15:29.798Z,15.77
2022-10-16T03:18:01.036Z,15.83
2022-10-16T03:20:28.411Z,15.80
2022-10-16T03:22:55.783Z,15.75
2022-10-16T03:25:23.460Z,15.78
2022-10-16T03:27:50.922Z,15.89
2022-10-16T03:30:18.278Z,15.77
2022-10-16T03:32:46.280Z,15.77
2022-10-16T03:35:16.324Z,15.71
2022-10-16T03:37:43.691Z,15.76
2022-10-16T03:40:11.504Z,15.74
2022-10-16T03:42:39.025Z,15.73
2022-10-16T03:45:06.988Z,15.76
2022-10-16T03:47:34.484Z,15.74
2022-10-16T03:50:01.809Z,15.77
2022-10-16T03:52:33.186Z,15.87
2022-10-16T03:55:00.580Z,15.86
2022-10-16T03:57:28.531Z,15.92
2022-10-16T03:59:56.211Z,15.90
2022-10-16T04:02:23.729Z,15.87
2022-10-16T04:04:51.141Z,15.87
2022-10-16T04:07:18.456Z,15.83
2022-10-16T04:09:45.796Z,15.92
2022-10-16T04:12:13.194Z,15.84
2022-10-16T04:14:40.533Z,15.78
2022-10-16T04:17:07.923Z,15.67
2022-10-16T04:19:35.358Z,15.62
2022-10-16T04:22:02.861Z,15.71
2022-10-16T04:24:30.270Z,15.67
2022-10-16T04:26:57.787Z,15.69
2022-10-16T04:29:25.258Z,15.69
2022-10-16T04:31:52.731Z,15.69
2022-10-16T04:34:20.069Z,15.70
2022-10-16T04:36:50.872Z,15.69
2022-10-16T04:39:18.252Z,15.70
2022-10-16T04:41:45.617Z,15.73
2022-10-16T04:44:15.717Z,15.78
2022-10-16T04:46:43.132Z,15.82
2022-10-16T04:49:10.466Z,15.83
2022-10-16T04:51:40.862Z,15.85
2022-10-16T04:54:08.251Z,15.84
2022-10-16T04:56:41.125Z,15.92
2022-10-16T04:59:08.507Z,15.96
2022-10-16T05:01:38.159Z,16.00
2022-10-16T05:04:05.732Z,16.06
2022-10-16T05:06:33.181Z,16.05
2022-10-16T05:09:00.507Z,16.18
2022-10-16T05:11:27.826Z,16.16
2022-10-16T05:13:55.972Z,16.06
2022-10-16T05:16:23.535Z,16.11
2022-10-16T05:18:53.154Z,16.19
2022-10-16T05:21:23.860Z,16.21
2022-10-16T05:23:51.198Z,16.18
2022-10-16T05:26:18.557Z,16.23
2022-10-16T05:28:45.927Z,16.23
2022-10-16T05:31:13.445Z,16.25
2022-10-16T05:33:41.942Z,16.21
2022-10-16T05:36:10.568Z,16.24
2022-10-16T05:38:38.450Z,16.23
2022-10-16T05:41:07.136Z,16.23
2022-10-16T05:43:34.449Z,16.26
2022-10-16T05:46:06.600Z,16.25
2022-10-16T05:48:34.413Z,16.25
2022-10-16T05:51:04.191Z,16.29
2022-10-16T05:53:34.263Z,16.29
2022-10-16T05:56:02.251Z,16.21
2022-10-16T05:58:32.255Z,16.25
2022-10-16T06:01:03.233Z,16.27
2022-10-16T06:03:30.647Z,16.31
2022-10-16T06:05:57.942Z,16.36
2022-10-16T06:08:25.361Z,16.36
2022-10-16T06:11:10.149Z,16.33
2022-10-16T06:13:37.624Z,16.29
2022-10-16T06:16:05.449Z,16.28
2022-10-16T06:18:32.937Z,16.36
2022-10-16T06:21:00.340Z,16.39
2022-10-16T06:23:29.644Z,16.36
2022-10-16T06:26:05.773Z,16.35
2022-10-16T06:28:33.905Z,16.45
2022-10-16T06:31:05.616Z,16.49
2022-10-16T06:33:36.841Z,16.54
2022-10-16T06:36:09.312Z,16.50
2022-10-16T06:38:37.476Z,16.50
2022-10-16T06:41:06.573Z,16.56
2022-10-16T06:43:36.629Z,16.60
2022-10-16T06:46:06.368Z,16.61
2022-10-16T06:48:33.734Z,16.61
2022-10-16T06:51:02.606Z,16.67
2022-10-16T06:53:39.653Z,16.68
2022-10-16T06:56:18.167Z,16.74
2022-10-16T06:58:45.854Z,16.75
2022-10-16T07:01:14.608Z,16.81
2022-10-16T07:03:43.623Z,16.87
2022-10-16T07:06:13.062Z,16.93
2022-10-16T07:08:43.895Z,16.99
2022-10-16T07:11:17.043Z,17.01
2022-10-16T07:13:49.330Z,17.06
2022-10-16T07:16:22.396Z,17.11
2022-10-16T07:18:50.478Z,17.15
2022-10-16T07:21:21.405Z,17.19
2022-10-16T07:23:52.690Z,17.20
2022-10-16T07:26:20.086Z,17.31
2022-10-16T07:28:47.735Z,17.36
2022-10-16T07:31:16.452Z,17.40
2022-10-16T07:33:46.147Z,17.46
2022-10-16T07:36:16.239Z,17.50
2022-10-16T07:38:47.079Z,17.49
2022-10-16T07:41:20.081Z,17.53
2022-10-16T07:43:48.896Z,17.53
2022-10-16T07:46:17.559Z,17.58
2022-10-16T07:48:48.031Z,17.65
2022-10-16T07:51:17.686Z,17.66
2022-10-16T07:53:45.094Z,17.70
2022-10-16T07:56:12.867Z,17.71
2022-10-16T07:58:40.764Z,17.75
2022-10-16T08:01:11.158Z,17.77
2022-10-16T08:03:38.643Z,17.89
2022-10-16T08:06:06.218Z,17.97
2022-10-16T08:08:33.840Z,18.01
2022-10-16T08:11:01.216Z,18.02
2022-10-16T08:13:28.540Z,18.03
2022-10-16T08:15:56.420Z,17.87
2022-10-16T08:18:24.093Z,17.98
2022-10-16T08:20:59.150Z,18.00
2022-10-16T08:23:27.491Z,19.50
2022-10-16T08:25:56.045Z,21.02
2022-10-16T08:28:24.404Z,22.46
2022-10-16T08:30:51.801Z,23.31
2022-10-16T08:33:19.231Z,23.91
2022-10-16T08:35:54.681Z,24.35
2022-10-16T08:38:22.598Z,24.79
2022-10-16T08:40:55.438Z,25.35
2022-10-16T08:43:58.098Z,25.50
2022-10-16T08:46:53.403Z,25.73
2022-10-16T08:49:21.094Z,25.65
2022-10-16T08:51:50.560Z,25.65
2022-10-16T08:54:21.068Z,26.18
2022-10-16T08:56:48.417Z,26.17
2022-10-16T08:59:17.946Z,27.12
2022-10-16T09:01:48.123Z,26.40
2022-10-16T09:04:27.398Z,26.84
2022-10-16T09:07:17.403Z,26.69
2022-10-16T09:10:03.677Z,26.98
2022-10-16T09:12:36.743Z,26.44
2022-10-16T09:15:12.878Z,27.63
2022-10-16T09:17:48.043Z,27.10
2022-10-16T09:20:46.058Z,27.06
2022-10-16T09:23:19.882Z,26.77
2022-10-16T09:25:50.369Z,26.81
2022-10-16T09:28:19.511Z,26.97
2022-10-16T09:30:49.590Z,26.96
2022-10-16T09:33:20.126Z,26.51
2022-10-16T09:35:54.012Z,26.39
2022-10-16T09:38:26.275Z,26.12
2022-10-16T09:41:02.391Z,25.82
2022-10-16T09:43:42.850Z,25.95
2022-10-16T09:46:22.334Z,26.02
2022-10-16T09:48:52.449Z,25.29
2022-10-16T09:51:26.510Z,25.36
2022-10-16T09:54:21.921Z,25.65
2022-10-16T09:56:54.795Z,25.50
2022-10-16T09:59:27.746Z,24.78
2022-10-16T10:01:56.203Z,24.38
2022-10-16T10:04:26.702Z,24.49
2022-10-16T10:06:57.270Z,23.84
2022-10-16T10:09:32.412Z,24.02
2022-10-16T10:12:05.202Z,23.21
2022-10-16T10:14:48.750Z,23.78
2022-10-16T10:17:19.292Z,23.94
2022-10-16T10:19:57.846Z,23.64
2022-10-16T10:22:25.522Z,23.74
2022-10-16T10:25:12.007Z,23.68
2022-10-16T10:27:57.361Z,23.29
2022-10-16T10:30:51.308Z,23.56
2022-10-16T10:33:31.382Z,23.47
2022-10-16T10:36:09.732Z,23.52
2022-10-16T10:38:57.581Z,23.47
2022-10-16T10:41:41.718Z,23.61
2022-10-16T10:44:38.231Z,23.57
2022-10-16T10:47:13.834Z,23.01
2022-10-16T10:49:58.061Z,22.77
2022-10-16T10:52:51.368Z,22.99
2022-10-16T10:55:46.702Z,22.90
2022-10-16T10:58:48.090Z,22.60
2022-10-16T11:01:19.862Z,22.96
2022-10-16T11:03:59.428Z,23.38
2022-10-16T11:06:32.591Z,23.36
2022-10-16T11:09:37.893Z,23.40
2022-10-16T11:12:27.222Z,23.15
2022-10-16T11:15:22.804Z,22.99
2022-10-16T11:18:02.654Z,23.04
2022-10-16T11:20:38.714Z,22.82
2022-10-16T11:23:19.898Z,23.08
2022-10-16T11:25:49.245Z,22.95
2022-10-16T11:28:22.081Z,22.87
2022-10-16T11:31:01.076Z,22.85
2022-10-16T11:33:38.696Z,22.80
2022-10-16T11:36:29.695Z,22.70
2022-10-16T11:39:09.935Z,22.39
2022-10-16T11:41:51.593Z,22.42
2022-10-16T11:44:34.170Z,22.61
2022-10-16T11:47:39.846Z,22.59
2022-10-16T11:50:42.831Z,22.56
2022-10-16T11:53:28.565Z,23.05
2022-10-16T11:55:55.922Z,23.60
2022-10-16T11:58:23.907Z,23.76
2022-10-16T12:01:08.284Z,23.83
2022-10-16T12:03:39.972Z,23.64
2022-10-16T12:06:44.598Z,23.38
2022-10-16T12:09:26.803Z,23.45
2022-10-16T12:11:54.040Z,23.29
2022-10-16T12:14:30.278Z,23.00
2022-10-16T12:17:00.780Z,23.22
2022-10-16T12:19:31.239Z,23.48
2022-10-16T12:22:04.386Z,23.53
2022-10-16T12:24:34.467Z,23.66
2022-10-16T12:27:02.711Z,23.71
2022-10-16T12:29:37.089Z,23.59
2022-10-16T12:32:41.839Z,23.41
2022-10-16T12:35:21.685Z,23.44
2022-10-16T12:37:49.527Z,23.52
2022-10-16T12:40:30.741Z,23.24
2022-10-16T12:42:58.658Z,23.04
2022-10-16T12:45:30.496Z,23.03
2022-10-16T12:47:59.130Z,23.09
2022-10-16T12:50:31.983Z,23.34
2022-10-16T12:53:01.515Z,23.15
2022-10-16T12:55:36.366Z,23.38
2022-10-16T12:58:17.141Z,23.32
2022-10-16T13:01:06.053Z,23.25
2022-10-16T13:03:39.429Z,23.25
2022-10-16T13:06:12.864Z,23.10
2022-10-16T13:08:45.994Z,23.18
2022-10-16T13:11:25.598Z,23.11
2022-10-16T13:14:07.822Z,23.18
2022-10-16T13:16:50.078Z,23.19
2022-10-16T13:19:35.821Z,23.13
2022-10-16T13:22:05.819Z,23.08
2022-10-16T13:24:47.455Z,23.03
2022-10-16T13:27:27.392Z,23.09
2022-10-16T13:30:03.483Z,23.11
2022-10-16T13:32:32.072Z,23.11
2022-10-16T13:35:01.215Z,23.14
2022-10-16T13:37:28.993Z,23.18
2022-10-16T13:40:29.172Z,23.10
2022-10-16T13:42:57.113Z,23.34
2022-10-16T13:45:26.477Z,23.32
2022-10-16T13:48:10.319Z,23.18
2022-10-16T13:50:37.676Z,23.16
2022-10-16T13:53:14.247Z,23.12
2022-10-16T13:55:41.898Z,23.11
2022-10-16T13:58:13.719Z,23.14
2022-10-16T14:00:53.923Z,23.13
2022-10-16T14:03:21.722Z,23.02
2022-10-16T14:06:19.309Z,22.85
2022-10-16T14:08:52.767Z,22.81
2022-10-16T14:11:27.360Z,22.78
2022-10-16T14:13:55.703Z,22.73
2022-10-16T14:16:26.803Z,22.76
2022-10-16T14:19:12.080Z,22.74
2022-10-16T14:21:41.866Z,22.74
2022-10-16T14:24:27.325Z,22.86
2022-10-16T14:26:57.953Z,22.78
2022-10-16T14:29:27.554Z,22.67
2022-10-16T14:31:57.785Z,22.62
2022-10-16T14:34:36.342Z,22.60
2022-10-16T14:37:27.844Z,22.83
2022-10-16T14:39:57.057Z,22.64
2022-10-16T14:42:26.676Z,22.64
2022-10-16T14:44:56.487Z,22.55
2022-10-16T14:47:27.747Z,22.53
2022-10-16T14:49:57.001Z,22.53
2022-10-16T14:52:24.428Z,22.57
2022-10-16T14:54:55.657Z,22.56
2022-10-16T14:57:31.093Z,22.58
2022-10-16T14:59:58.547Z,22.58
2022-10-16T15:02:33.143Z,22.54
2022-10-16T15:05:12.256Z,22.51
2022-10-16T15:07:39.627Z,22.57
2022-10-16T15:10:07.130Z,22.48
2022-10-16T15:12:34.514Z,22.52
2022-10-16T15:15:01.944Z,22.43
2022-10-16T15:17:29.640Z,22.39
2022-10-16T15:19:59.395Z,22.32
2022-10-16T15:22:26.985Z,22.38
2022-10-16T15:24:54.417Z,22.34
2022-10-16T15:27:21.845Z,22.27
2022-10-16T15:29:49.199Z,22.34
2022-10-16T15:32:16.604Z,22.19
2022-10-16T15:34:43.890Z,22.12
2022-10-16T15:37:12.949Z,22.01
2022-10-16T15:39:41.346Z,21.89
2022-10-16T15:42:08.975Z,21.88
2022-10-16T15:44:36.314Z,21.82
2022-10-16T15:47:03.655Z,21.81
2022-10-16T15:49:30.990Z,21.78
2022-10-16T15:51:58.643Z,21.72
2022-10-16T15:54:26.009Z,21.71
2022-10-16T15:56:53.346Z,21.60
2022-10-16T15:59:21.838Z,21.46
2022-10-16T16:01:49.229Z,21.48
2022-10-16T16:04:42.262Z,21.46
2022-10-16T16:07:08.236Z,21.45
2022-10-16T16:09:35.752Z,21.33
2022-10-16T16:12:03.226Z,21.27
2022-10-16T16:14:30.559Z,21.14
2022-10-16T16:16:58.425Z,21.00
2022-10-16T16:19:25.774Z,20.93
2022-10-16T16:21:53.197Z,20.79
2022-10-16T16:24:21.142Z,20.73
2022-10-16T16:26:48.482Z,20.64
2022-10-16T16:29:17.066Z,20.59
2022-10-16T16:31:44.581Z,20.52
2022-10-16T16:34:12.038Z,20.49
2022-10-16T16:36:40.931Z,20.43
2022-10-16T16:39:08.760Z,20.35
2022-10-16T16:41:37.149Z,20.29
2022-10-16T16:44:09.646Z,20.24
2022-10-16T16:46:38.074Z,20.20
2022-10-16T16:49:05.414Z,20.13
2022-10-16T16:51:37.003Z,20.09
2022-10-16T16:54:13.014Z,20.06
2022-10-16T16:56:43.519Z,20.03
2022-10-16T16:59:14.954Z,19.99
2022-10-16T17:01:42.572Z,19.95
2022-10-16T17:04:11.257Z,19.81
2022-10-16T17:06:38.912Z,19.72
2022-10-16T17:09:07.329Z,19.62
2022-10-16T17:11:35.138Z,19.64
2022-10-16T17:14:05.790Z,19.65
2022-10-16T17:16:38.229Z,19.66
2022-10-16T17:19:08.286Z,19.65
2022-10-16T17:21:36.327Z,19.66
2022-10-16T17:24:04.780Z,19.62
2022-10-16T17:26:32.832Z,19.61
2022-10-16T17:29:02.184Z,19.58
2022-10-16T17:31:35.208Z,19.52
2022-10-16T17:34:05.153Z,19.41
2022-10-16T17:36:36.382Z,19.13
2022-10-16T17:39:07.072Z,19.07
2022-10-16T17:41:35.626Z,19.03
2022-10-16T17:44:05.450Z,19.04
2022-10-16T17:46:36.962Z,19.02
2022-10-16T17:49:07.566Z,18.97
2022-10-16T17:51:34.915Z,18.95
2022-10-16T17:54:02.447Z,18.93
2022-10-16T17:56:30.418Z,18.88
2022-10-16T17:59:00.847Z,18.89
2022-10-16T18:01:31.914Z,18.86
2022-10-16T18:04:10.609Z,18.94
2022-10-16T18:06:38.216Z,18.80
2022-10-16T18:09:07.999Z,18.86
2022-10-16T18:11:35.830Z,19.03
2022-10-16T18:14:04.222Z,19.01
2022-10-16T18:16:32.900Z,18.87
2022-10-16T18:19:02.974Z,18.96
2022-10-16T18:21:31.224Z,19.01
2022-10-16T18:23:59.953Z,18.97
2022-10-16T18:26:30.258Z,18.96
2022-10-16T18:28:58.257Z,19.09
2022-10-16T18:31:26.845Z,19.05
2022-10-16T18:33:55.751Z,18.93
2022-10-16T18:36:32.459Z,18.68
2022-10-16T18:39:04.484Z,18.51
2022-10-16T18:41:32.733Z,18.41
2022-10-16T18:44:00.101Z,18.37
2022-10-16T18:46:28.847Z,18.47
2022-10-16T18:49:00.513Z,18.54
2022-10-16T18:51:31.032Z,18.57
2022-10-16T18:54:00.564Z,18.60
2022-10-16T18:56:30.453Z,18.60
2022-10-16T18:59:00.976Z,18.59
2022-10-16T19:01:30.942Z,18.52
2022-10-16T19:04:04.627Z,18.49
2022-10-16T19:06:35.465Z,18.35
2022-10-16T19:09:03.886Z,18.36
2022-10-16T19:11:32.089Z,18.38
2022-10-16T19:13:59.818Z,18.39
2022-10-16T19:16:30.594Z,18.43
2022-10-16T19:19:00.643Z,18.39
2022-10-16T19:21:29.677Z,18.38
2022-10-16T19:24:02.186Z,18.37
2022-10-16T19:26:31.543Z,18.44
2022-10-16T19:29:00.879Z,18.37
2022-10-16T19:31:30.101Z,18.34
2022-10-16T19:33:59.897Z,18.35
2022-10-16T19:36:30.514Z,18.41
2022-10-16T19:39:04.105Z,18.38
2022-10-16T19:41:32.566Z,18.33
2022-10-16T19:44:05.412Z,18.37
2022-10-16T19:46:33.846Z,18.28
2022-10-16T19:49:04.044Z,18.25
2022-10-16T19:51:31.926Z,18.18
2022-10-16T19:54:02.108Z,17.92
2022-10-16T19:56:34.200Z,17.78
2022-10-16T19:59:02.218Z,17.70
2022-10-16T20:01:32.267Z,17.79
2022-10-16T20:04:00.789Z,17.78
2022-10-16T20:06:28.546Z,17.75
2022-10-16T20:08:58.236Z,17.80
2022-10-16T20:11:29.180Z,17.84
2022-10-16T20:13:56.942Z,17.73
2022-10-16T20:16:25.536Z,17.80
2022-10-16T20:18:53.599Z,17.70
2022-10-16T20:21:26.625Z,17.80
2022-10-16T20:23:54.546Z,17.76
2022-10-16T20:26:24.427Z,17.72
2022-10-16T20:28:55.505Z,17.72
2022-10-16T20:31:26.477Z,17.67
2022-10-16T20:33:57.229Z,17.64
2022-10-16T20:36:26.910Z,17.71
2022-10-16T20:38:54.459Z,17.63
2022-10-16T20:41:22.760Z,17.56
2022-10-16T20:43:55.066Z,17.46
2022-10-16T20:46:24.747Z,17.40
2022-10-16T20:48:53.663Z,17.28
2022-10-16T20:51:26.955Z,17.18
2022-10-16T20:53:57.082Z,17.11
2022-10-16T20:56:26.744Z,17.11
2022-10-16T20:58:54.313Z,17.03
2022-10-16T21:01:25.434Z,16.95
2022-10-16T21:03:58.510Z,16.94
2022-10-16T21:06:26.711Z,17.03
2022-10-16T21:08:54.506Z,17.09
2022-10-16T21:11:27.466Z,17.01
2022-10-16T21:13:59.529Z,16.92
2022-10-16T21:16:27.057Z,16.92
2022-10-16T21:18:55.172Z,16.91
2022-10-16T21:21:29.659Z,16.90
2022-10-16T21:23:59.026Z,16.90
2022-10-16T21:26:27.318Z,16.91
2022-10-16T21:28:59.995Z,16.97
2022-10-16T21:31:28.226Z,16.94
2022-10-16T21:33:56.595Z,16.89
2022-10-16T21:36:28.723Z,16.79
2022-10-16T21:38:56.522Z,16.82
2022-10-16T21:41:26.698Z,16.78
2022-10-16T21:43:55.558Z,16.78
2022-10-16T21:46:25.880Z,16.82
2022-10-16T21:48:54.426Z,16.84
2022-10-16T21:51:29.015Z,16.87
2022-10-16T21:53:56.284Z,16.76
2022-10-16T21:56:23.690Z,16.79
2022-10-16T21:58:51.870Z,16.85
2022-10-16T22:01:23.819Z,16.82
2022-10-16T22:03:51.227Z,16.90
2022-10-16T22:08:55.874Z,16.90
2022-10-16T22:11:36.618Z,16.82
2022-10-16T22:14:10.547Z,16.80
2022-10-16T22:16:38.662Z,16.81
2022-10-16T22:19:09.128Z,16.79
2022-10-16T22:21:38.444Z,16.86
2022-10-16T22:24:06.923Z,16.88
2022-10-16T22:26:35.691Z,16.73
2022-10-16T22:29:04.536Z,16.71
2022-10-16T22:31:31.974Z,16.74
2022-10-16T22:34:01.753Z,16.70
2022-10-16T22:36:29.362Z,16.67
2022-10-16T22:38:57.554Z,16.68
2022-10-16T22:41:25.317Z,16.68
2022-10-16T22:43:53.001Z,16.61
2022-10-16T22:46:26.033Z,16.62
2022-10-16T22:48:56.378Z,16.65
2022-10-16T22:51:25.867Z,16.63
2022-10-16T22:53:53.388Z,16.68
2022-10-16T22:56:22.163Z,16.69
2022-10-16T22:58:50.071Z,16.63
2022-10-16T23:01:30.875Z,16.63
2022-10-16T23:04:01.245Z,16.65
2022-10-16T23:06:30.035Z,16.55
2022-10-16T23:08:59.522Z,16.52
2022-10-16T23:11:28.706Z,16.54
2022-10-16T23:13:56.352Z,16.52
2022-10-16T23:16:26.202Z,16.52
2022-10-16T23:18:53.985Z,16.46
2022-10-16T23:21:23.933Z,16.40
2022-10-16T23:23:52.672Z,16.33
2022-10-16T23:26:23.503Z,16.35
2022-10-16T23:28:50.952Z,16.28
2022-10-16T23:31:19.482Z,16.31
2022-10-16T23:33:46.877Z,16.26
2022-10-16T23:36:17.157Z,16.24
2022-10-16T23:38:45.026Z,16.16
2022-10-16T23:41:13.070Z,16.22
2022-10-16T23:43:41.047Z,16.18
2022-10-16T23:46:11.761Z,16.21
2022-10-16T23:48:39.760Z,16.17
2022-10-16T23:51:08.478Z,16.18
2022-10-16T23:53:36.145Z,16.14
2022-10-16T23:56:03.963Z,16.16
2022-10-16T23:58:31.425Z,16.13
